Time;durP1;ratioP1;P1;durP2;ratioP2;P2;SDS_P1;SDS_P2;PMS_P1;PMS_P2;Temp;Humidity;BMP_temperature;BMP_pressure;BME280_temperature;BME280_humidity;BME280_pressure;Samples;Min_cycle;Max_cycle;Signal;HPM_P1;HPM_P2
2022/03/08 00:00:19;;;;;;;4.78;4.13;;;;;;;;;;4970533;28;20201;-77
2022/03/08 00:02:46;;;;;;;4.90;4.40;;;;;;;;;;4967661;28;20218;-77
2022/03/08 00:05:13;;;;;;;6.15;3.72;;;;;;;;;;4966630;28;20198;-78
2022/03/08 00:07:41;;;;;;;4.00;3.70;;;;;;;;;;4961356;28;20205;-77
2022/03/08 00:10:10;;;;;;;3.65;3.25;;;;;;;;;;4967553;28;20223;-77
2022/03/08 00:12:37;;;;;;;4.65;3.83;;;;;;;;;;4971759;28;20220;-77
2022/03/08 00:15:06;;;;;;;5.60;4.40;;;;;;;;;;4970021;28;20204;-78
2022/03/08 00:17:33;;;;;;;5.95;4.72;;;;;;;;;;4970972;28;20205;-77
2022/03/08 00:20:00;;;;;;;4.97;4.40;;;;;;;;;;4963258;28;20261;-78
2022/03/08 00:22:27;;;;;;;4.50;4.10;;;;;;;;;;4966558;28;20592;-77
2022/03/08 00:24:56;;;;;;;4.32;3.38;;;;;;;;;;4970299;28;20257;-76
2022/03/08 00:27:23;;;;;;;5.07;3.80;;;;;;;;;;4968865;28;20202;-77
2022/03/08 00:29:50;;;;;;;5.25;4.68;;;;;;;;;;4962643;28;20556;-77
2022/03/08 00:32:17;;;;;;;4.60;3.85;;;;;;;;;;4973647;28;20263;-77
2022/03/08 00:34:44;;;;;;;7.45;4.47;;;;;;;;;;4971879;28;20197;-77
2022/03/08 00:37:11;;;;;;;4.95;4.03;;;;;;;;;;4974892;28;20564;-77
2022/03/08 00:39:38;;;;;;;5.80;3.70;;;;;;;;;;4972179;28;20566;-74
2022/03/08 00:42:11;;;;;;;5.45;4.22;;;;;;;;;;4972889;28;21126;-73
2022/03/08 00:44:38;;;;;;;3.90;3.60;;;;;;;;;;4972834;28;20269;-73
2022/03/08 00:47:06;;;;;;;5.70;4.55;;;;;;;;;;4968386;28;20194;-73
2022/03/08 00:49:33;;;;;;;4.45;4.07;;;;;;;;;;4961317;28;20203;-73
2022/03/08 00:52:00;;;;;;;5.90;4.00;;;;;;;;;;4972332;28;20266;-73
2022/03/08 00:54:27;;;;;;;6.20;4.07;;;;;;;;;;4968716;28;20198;-73
2022/03/08 00:56:54;;;;;;;4.13;3.72;;;;;;;;;;4970714;28;20186;-74
2022/03/08 00:59:22;;;;;;;5.90;4.80;;;;;;;;;;4973073;28;20197;-74
2022/03/08 01:01:50;;;;;;;3.85;3.55;;;;;;;;;;4966827;28;20554;-74
2022/03/08 01:04:17;;;;;;;5.10;4.68;;;;;;;;;;4964863;28;20221;-75
2022/03/08 01:06:45;;;;;;;4.70;3.65;;;;;;;;;;4965007;28;20625;-75
2022/03/08 01:09:12;;;;;;;3.92;3.50;;;;;;;;;;4964733;28;20212;-75
2022/03/08 01:11:41;;;;;;;5.13;4.00;;;;;;;;;;4971513;28;20194;-75
2022/03/08 01:14:09;;;;;;;4.53;3.85;;;;;;;;;;4971472;28;20201;-74
2022/03/08 01:16:37;;;;;;;5.13;4.50;;;;;;;;;;4970103;28;20205;-74
2022/03/08 01:19:05;;;;;;;5.60;4.22;;;;;;;;;;4975162;28;20604;-74
2022/03/08 01:21:32;;;;;;;6.40;4.60;;;;;;;;;;4971914;28;20197;-75
2022/03/08 01:23:59;;;;;;;4.43;4.03;;;;;;;;;;4965455;28;20248;-74
2022/03/08 01:26:26;;;;;;;5.65;4.25;;;;;;;;;;4971041;28;20233;-74
2022/03/08 01:28:53;;;;;;;5.93;4.13;;;;;;;;;;4980022;28;20541;-74
2022/03/08 01:31:20;;;;;;;4.57;4.13;;;;;;;;;;4969170;28;20201;-74
2022/03/08 01:33:49;;;;;;;6.53;4.30;;;;;;;;;;4976659;28;20248;-74
2022/03/08 01:36:16;;;;;;;4.05;3.58;;;;;;;;;;4969378;28;20205;-73
2022/03/08 01:38:43;;;;;;;3.95;3.58;;;;;;;;;;4975092;28;20201;-73
2022/03/08 01:41:10;;;;;;;9.77;4.60;;;;;;;;;;4973058;28;20576;-74
2022/03/08 01:43:37;;;;;;;5.20;4.20;;;;;;;;;;4964748;28;20217;-73
2022/03/08 01:46:05;;;;;;;4.95;4.53;;;;;;;;;;4970398;28;20193;-73
2022/03/08 01:48:31;;;;;;;5.00;4.10;;;;;;;;;;4973325;28;20205;-73
2022/03/08 01:51:00;;;;;;;4.38;3.75;;;;;;;;;;4968232;28;20296;-73
2022/03/08 01:53:27;;;;;;;4.53;3.85;;;;;;;;;;4966481;28;20260;-74
2022/03/08 01:55:54;;;;;;;4.60;4.13;;;;;;;;;;4974380;28;20313;-74
2022/03/08 01:58:21;;;;;;;8.57;4.00;;;;;;;;;;4974673;28;20197;-74
2022/03/08 02:00:48;;;;;;;5.03;4.45;;;;;;;;;;4969437;28;20202;-74
2022/03/08 02:03:15;;;;;;;4.53;3.90;;;;;;;;;;4969060;28;20218;-74
2022/03/08 02:05:42;;;;;;;7.97;4.18;;;;;;;;;;4969519;28;20190;-73
2022/03/08 02:08:10;;;;;;;6.00;4.63;;;;;;;;;;4967240;28;20189;-74
2022/03/08 02:10:37;;;;;;;5.50;4.90;;;;;;;;;;4970363;28;20237;-74
2022/03/08 02:13:04;;;;;;;9.05;3.95;;;;;;;;;;4962522;28;20768;-73
2022/03/08 02:15:31;;;;;;;5.95;4.32;;;;;;;;;;4968352;28;20205;-73
2022/03/08 02:17:59;;;;;;;4.10;3.70;;;;;;;;;;4972637;28;20194;-74
2022/03/08 02:20:27;;;;;;;4.45;3.97;;;;;;;;;;4978410;28;20201;-74
2022/03/08 02:22:55;;;;;;;4.70;3.97;;;;;;;;;;4973021;28;20241;-74
2022/03/08 02:25:23;;;;;;;5.47;4.30;;;;;;;;;;4962329;28;20217;-74
2022/03/08 02:27:52;;;;;;;5.18;3.83;;;;;;;;;;4971618;28;20200;-74
2022/03/08 02:30:20;;;;;;;4.63;4.20;;;;;;;;;;4969560;28;20198;-74
2022/03/08 02:32:47;;;;;;;5.25;4.25;;;;;;;;;;4971396;28;20197;-73
2022/03/08 02:35:15;;;;;;;5.45;4.30;;;;;;;;;;4968330;28;20346;-73
2022/03/08 02:37:42;;;;;;;6.03;4.05;;;;;;;;;;4972003;28;20205;-74
2022/03/08 02:40:13;;;;;;;5.80;4.22;;;;;;;;;;4961052;28;20485;-75
2022/03/08 02:42:40;;;;;;;5.30;3.83;;;;;;;;;;4972412;28;20197;-74
2022/03/08 02:45:08;;;;;;;6.05;4.25;;;;;;;;;;4968773;28;20601;-74
2022/03/08 02:47:35;;;;;;;5.32;4.07;;;;;;;;;;4969240;28;20189;-74
2022/03/08 02:50:02;;;;;;;3.88;3.58;;;;;;;;;;4973154;28;20903;-74
2022/03/08 02:52:29;;;;;;;6.30;4.70;;;;;;;;;;4973185;28;20217;-74
2022/03/08 02:54:56;;;;;;;5.38;4.60;;;;;;;;;;4964598;28;20198;-74
2022/03/08 02:57:24;;;;;;;4.68;3.90;;;;;;;;;;4968592;28;20810;-74
2022/03/08 02:59:51;;;;;;;6.03;4.43;;;;;;;;;;4970289;28;20289;-74
2022/03/08 03:02:18;;;;;;;4.63;3.90;;;;;;;;;;4960626;28;20194;-74
2022/03/08 03:04:46;;;;;;;5.22;3.50;;;;;;;;;;4971391;28;20225;-74
2022/03/08 03:07:13;;;;;;;4.60;4.20;;;;;;;;;;4966878;28;20631;-74
2022/03/08 03:09:40;;;;;;;4.20;3.65;;;;;;;;;;4973768;28;20244;-73
2022/03/08 03:12:07;;;;;;;4.78;4.30;;;;;;;;;;4969846;28;20190;-74
2022/03/08 03:14:36;;;;;;;4.18;3.80;;;;;;;;;;4970293;28;20224;-74
2022/03/08 03:17:03;;;;;;;4.93;4.45;;;;;;;;;;4967196;28;20201;-74
2022/03/08 03:19:30;;;;;;;5.22;4.00;;;;;;;;;;4971866;28;20197;-74
2022/03/08 03:21:57;;;;;;;5.97;4.30;;;;;;;;;;4964143;28;20236;-74
2022/03/08 03:24:24;;;;;;;5.30;4.80;;;;;;;;;;4971852;28;20229;-73
2022/03/08 03:26:51;;;;;;;3.67;3.38;;;;;;;;;;4967963;28;20224;-73
2022/03/08 03:29:18;;;;;;;5.13;4.60;;;;;;;;;;4970522;28;20210;-74
2022/03/08 03:31:46;;;;;;;3.85;3.55;;;;;;;;;;4966614;28;20232;-74
2022/03/08 03:34:13;;;;;;;5.82;3.92;;;;;;;;;;4963913;28;20212;-74
2022/03/08 03:36:40;;;;;;;5.65;3.78;;;;;;;;;;4962627;28;20198;-74
2022/03/08 03:39:08;;;;;;;7.72;4.13;;;;;;;;;;4953311;28;20253;-74
2022/03/08 03:41:35;;;;;;;3.97;3.55;;;;;;;;;;4959294;28;20325;-74
2022/03/08 03:44:02;;;;;;;4.85;4.35;;;;;;;;;;4970272;28;20241;-75
2022/03/08 03:46:29;;;;;;;4.50;3.70;;;;;;;;;;4967971;28;20198;-74
2022/03/08 03:48:57;;;;;;;4.40;3.97;;;;;;;;;;4971494;28;20212;-74
2022/03/08 03:51:24;;;;;;;5.18;4.25;;;;;;;;;;4972417;28;20628;-74
2022/03/08 03:53:51;;;;;;;6.85;4.18;;;;;;;;;;4971233;28;20201;-74
2022/03/08 03:56:18;;;;;;;4.40;3.40;;;;;;;;;;4970937;28;20201;-74
2022/03/08 03:58:45;;;;;;;5.20;4.70;;;;;;;;;;4969577;28;20205;-74
2022/03/08 04:01:12;;;;;;;4.00;3.55;;;;;;;;;;4967836;28;20256;-74
2022/03/08 04:03:39;;;;;;;4.65;4.18;;;;;;;;;;4976892;28;20609;-74
2022/03/08 04:06:08;;;;;;;4.60;4.20;;;;;;;;;;4971756;28;20197;-74
2022/03/08 04:08:35;;;;;;;4.25;3.88;;;;;;;;;;4973986;28;20190;-74
2022/03/08 04:11:02;;;;;;;5.57;5.03;;;;;;;;;;4974205;28;20723;-74
2022/03/08 04:13:29;;;;;;;5.28;4.13;;;;;;;;;;4974615;28;20205;-75
2022/03/08 04:15:56;;;;;;;5.65;5.07;;;;;;;;;;4969295;28;20198;-74
2022/03/08 04:18:23;;;;;;;8.00;5.53;;;;;;;;;;4993505;28;20196;-74
2022/03/08 04:20:50;;;;;;;3.95;3.55;;;;;;;;;;4987135;28;20205;-75
2022/03/08 04:23:19;;;;;;;6.38;4.88;;;;;;;;;;4985026;28;20477;-74
2022/03/08 04:25:46;;;;;;;6.60;4.68;;;;;;;;;;4977520;28;20197;-74
2022/03/08 04:28:12;;;;;;;4.75;4.35;;;;;;;;;;4964055;28;20202;-74
2022/03/08 04:30:40;;;;;;;5.80;5.22;;;;;;;;;;4970602;28;20210;-74
2022/03/08 04:33:08;;;;;;;4.95;4.45;;;;;;;;;;4973381;28;20303;-74
2022/03/08 04:35:35;;;;;;;6.97;4.55;;;;;;;;;;4976361;28;20213;-74
2022/03/08 04:38:02;;;;;;;4.72;4.28;;;;;;;;;;4972986;28;20208;-74
2022/03/08 04:40:30;;;;;;;5.10;4.60;;;;;;;;;;4970263;28;20216;-74
2022/03/08 04:42:57;;;;;;;4.70;4.28;;;;;;;;;;4959557;28;20213;-74
2022/03/08 04:45:24;;;;;;;6.43;4.38;;;;;;;;;;4966696;28;21002;-73
2022/03/08 04:47:51;;;;;;;7.07;4.38;;;;;;;;;;4976879;28;20679;-73
2022/03/08 04:50:19;;;;;;;4.97;4.57;;;;;;;;;;4977049;28;20252;-73
2022/03/08 04:52:46;;;;;;;5.88;5.28;;;;;;;;;;4973416;28;20202;-72
2022/03/08 04:55:13;;;;;;;6.05;4.68;;;;;;;;;;4976703;28;20202;-73
2022/03/08 04:57:42;;;;;;;5.55;4.85;;;;;;;;;;4976744;28;20205;-73
2022/03/08 05:00:11;;;;;;;6.10;4.20;;;;;;;;;;4969425;28;20194;-73
2022/03/08 05:02:38;;;;;;;7.45;4.53;;;;;;;;;;4972869;28;20560;-72
2022/03/08 05:05:06;;;;;;;9.13;4.90;;;;;;;;;;4973720;28;20225;-73
2022/03/08 05:07:33;;;;;;;7.80;4.95;;;;;;;;;;4972832;28;20568;-72
2022/03/08 05:10:00;;;;;;;6.38;5.72;;;;;;;;;;4971708;28;20204;-74
2022/03/08 05:12:27;;;;;;;6.68;4.53;;;;;;;;;;4974565;28;20206;-74
2022/03/08 05:14:55;;;;;;;6.70;4.75;;;;;;;;;;4970988;28;20208;-73
2022/03/08 05:17:22;;;;;;;4.72;4.22;;;;;;;;;;4971315;28;20675;-73
2022/03/08 05:19:49;;;;;;;6.82;6.10;;;;;;;;;;4973268;28;20657;-73
2022/03/08 05:22:16;;;;;;;5.78;5.20;;;;;;;;;;4981666;28;20204;-73
2022/03/08 05:24:43;;;;;;;9.05;6.10;;;;;;;;;;4964386;28;20589;-73
2022/03/08 05:27:10;;;;;;;6.05;5.50;;;;;;;;;;4972664;28;20205;-75
2022/03/08 05:29:37;;;;;;;8.23;5.50;;;;;;;;;;4972246;28;20208;-73
2022/03/08 05:32:06;;;;;;;6.65;5.82;;;;;;;;;;4967396;28;20210;-73
2022/03/08 05:34:34;;;;;;;5.97;5.07;;;;;;;;;;4973942;28;20677;-73
2022/03/08 05:37:01;;;;;;;8.02;5.70;;;;;;;;;;4971414;28;20202;-73
2022/03/08 05:39:28;;;;;;;7.72;5.70;;;;;;;;;;4974649;28;20224;-73
2022/03/08 05:41:55;;;;;;;5.25;4.82;;;;;;;;;;4967136;28;20665;-73
2022/03/08 05:44:22;;;;;;;7.00;6.25;;;;;;;;;;4971804;28;20703;-73
2022/03/08 05:46:50;;;;;;;9.32;5.57;;;;;;;;;;4969543;28;20201;-74
2022/03/08 05:49:18;;;;;;;7.63;6.38;;;;;;;;;;4974000;28;20209;-73
2022/03/08 05:51:45;;;;;;;8.25;6.57;;;;;;;;;;4971048;28;20209;-74
2022/03/08 05:54:12;;;;;;;7.43;5.90;;;;;;;;;;4972663;28;20546;-73
2022/03/08 05:56:39;;;;;;;6.60;5.28;;;;;;;;;;4972040;28;20201;-73
2022/03/08 05:59:06;;;;;;;7.18;5.35;;;;;;;;;;4969309;28;20202;-73
2022/03/08 06:01:33;;;;;;;9.30;6.22;;;;;;;;;;4967792;28;20206;-73
2022/03/08 06:04:00;;;;;;;10.20;6.50;;;;;;;;;;4969021;28;20194;-74
2022/03/08 06:06:29;;;;;;;6.95;5.32;;;;;;;;;;4969175;28;20221;-74
2022/03/08 06:08:56;;;;;;;9.25;6.00;;;;;;;;;;4972859;28;20193;-75
2022/03/08 06:11:23;;;;;;;8.60;6.13;;;;;;;;;;4966181;28;20676;-75
2022/03/08 06:13:50;;;;;;;7.68;6.35;;;;;;;;;;4962022;28;20232;-74
2022/03/08 06:16:17;;;;;;;6.40;5.72;;;;;;;;;;4969404;28;20197;-74
2022/03/08 06:18:45;;;;;;;8.75;5.93;;;;;;;;;;4970601;28;20205;-74
2022/03/08 06:21:12;;;;;;;8.10;5.63;;;;;;;;;;4968168;28;20550;-74
2022/03/08 06:23:40;;;;;;;5.50;5.00;;;;;;;;;;4964673;28;20217;-74
2022/03/08 06:26:07;;;;;;;6.35;5.57;;;;;;;;;;4972298;28;20218;-74
2022/03/08 06:28:35;;;;;;;5.05;4.55;;;;;;;;;;4970502;28;20217;-75
2022/03/08 06:31:02;;;;;;;7.00;5.78;;;;;;;;;;4972415;28;20197;-75
2022/03/08 06:33:29;;;;;;;5.57;4.63;;;;;;;;;;4972019;28;20202;-75
2022/03/08 06:35:56;;;;;;;6.13;4.93;;;;;;;;;;4972523;28;20213;-75
2022/03/08 06:38:23;;;;;;;6.15;5.03;;;;;;;;;;4971601;28;20205;-74
2022/03/08 06:40:51;;;;;;;8.63;5.20;;;;;;;;;;4972025;28;20233;-74
2022/03/08 06:43:19;;;;;;;5.30;4.78;;;;;;;;;;4967869;28;20577;-74
2022/03/08 06:45:46;;;;;;;5.38;4.88;;;;;;;;;;4964017;28;20313;-74
2022/03/08 06:48:13;;;;;;;6.70;5.43;;;;;;;;;;4968971;28;21010;-75
2022/03/08 06:50:40;;;;;;;6.90;5.47;;;;;;;;;;4964001;28;20201;-74
2022/03/08 06:53:07;;;;;;;5.95;5.07;;;;;;;;;;4970219;28;20202;-75
2022/03/08 06:55:35;;;;;;;6.30;5.65;;;;;;;;;;4971726;28;20256;-75
2022/03/08 06:58:03;;;;;;;7.18;6.10;;;;;;;;;;4968664;28;20189;-74
2022/03/08 07:00:30;;;;;;;9.02;5.82;;;;;;;;;;4971162;28;20541;-75
2022/03/08 07:02:57;;;;;;;8.70;5.70;;;;;;;;;;4971819;28;20289;-75
2022/03/08 07:05:25;;;;;;;7.55;5.95;;;;;;;;;;4962476;28;20674;-75
2022/03/08 07:07:53;;;;;;;6.00;5.40;;;;;;;;;;4970923;28;20320;-75
2022/03/08 07:10:20;;;;;;;6.93;6.22;;;;;;;;;;4969017;28;20190;-75
2022/03/08 07:12:47;;;;;;;9.13;5.90;;;;;;;;;;4966633;28;20190;-75
2022/03/08 07:15:16;;;;;;;8.45;5.68;;;;;;;;;;4964055;28;20201;-75
2022/03/08 07:17:45;;;;;;;7.13;6.40;;;;;;;;;;4965630;28;20249;-74
2022/03/08 07:20:13;;;;;;;6.63;5.45;;;;;;;;;;4968652;28;20208;-75
2022/03/08 07:22:40;;;;;;;6.00;5.40;;;;;;;;;;4971477;28;20186;-75
2022/03/08 07:25:08;;;;;;;6.65;6.05;;;;;;;;;;4970829;28;20225;-72
2022/03/08 07:27:35;;;;;;;5.90;4.55;;;;;;;;;;4966222;28;20197;-75
2022/03/08 07:30:03;;;;;;;6.50;5.18;;;;;;;;;;4970140;28;20204;-75
2022/03/08 07:32:31;;;;;;;5.60;5.00;;;;;;;;;;4972020;28;20569;-75
2022/03/08 07:34:59;;;;;;;6.18;4.57;;;;;;;;;;4965869;28;20260;-75
2022/03/08 07:37:26;;;;;;;8.00;4.95;;;;;;;;;;4969281;28;20197;-76
2022/03/08 07:39:54;;;;;;;8.90;6.00;;;;;;;;;;4965926;28;20241;-75
2022/03/08 07:42:21;;;;;;;5.60;5.10;;;;;;;;;;4964929;28;20200;-74
2022/03/08 07:44:48;;;;;;;9.65;6.55;;;;;;;;;;4963875;28;20225;-75
2022/03/08 07:47:15;;;;;;;4.90;4.47;;;;;;;;;;4961364;28;20256;-72
2022/03/08 07:49:44;;;;;;;5.15;4.75;;;;;;;;;;4961825;28;20189;-73
2022/03/08 07:52:11;;;;;;;5.68;5.10;;;;;;;;;;4965134;28;20212;-74
2022/03/08 07:54:38;;;;;;;7.22;5.07;;;;;;;;;;4971369;28;20197;-74
2022/03/08 07:57:05;;;;;;;5.10;4.40;;;;;;;;;;4965243;28;20213;-73
2022/03/08 07:59:32;;;;;;;9.57;5.57;;;;;;;;;;4961702;28;20248;-73
2022/03/08 08:01:59;;;;;;;8.07;5.75;;;;;;;;;;4960918;28;20197;-73
2022/03/08 08:04:26;;;;;;;8.27;5.43;;;;;;;;;;4959548;28;20263;-73
2022/03/08 08:06:55;;;;;;;5.95;5.35;;;;;;;;;;4966745;28;20248;-73
2022/03/08 08:09:22;;;;;;;6.50;4.63;;;;;;;;;;4965511;28;20201;-73
2022/03/08 08:11:50;;;;;;;5.55;5.05;;;;;;;;;;4964678;28;20208;-73
2022/03/08 08:14:17;;;;;;;6.65;5.53;;;;;;;;;;4969730;28;20198;-73
2022/03/08 08:16:45;;;;;;;5.82;5.07;;;;;;;;;;4961405;28;20193;-73
2022/03/08 08:19:12;;;;;;;7.88;5.28;;;;;;;;;;4970000;28;20208;-73
2022/03/08 08:21:39;;;;;;;6.63;6.03;;;;;;;;;;4967069;28;20197;-73
2022/03/08 08:24:08;;;;;;;6.38;5.55;;;;;;;;;;4965803;28;20274;-73
2022/03/08 08:26:35;;;;;;;9.13;6.15;;;;;;;;;;4971736;28;20217;-74
2022/03/08 08:29:02;;;;;;;9.23;5.57;;;;;;;;;;4969289;28;20252;-72
2022/03/08 08:31:31;;;;;;;9.70;5.65;;;;;;;;;;4965104;28;20197;-73
2022/03/08 08:33:58;;;;;;;5.65;5.03;;;;;;;;;;4969523;28;20233;-72
2022/03/08 08:36:25;;;;;;;5.78;5.03;;;;;;;;;;4965610;28;20206;-72
2022/03/08 08:38:52;;;;;;;5.28;4.75;;;;;;;;;;4968839;28;20660;-72
2022/03/08 08:41:21;;;;;;;6.20;4.95;;;;;;;;;;4964182;28;20208;-73
2022/03/08 08:43:48;;;;;;;5.47;4.75;;;;;;;;;;4968134;28;20194;-72
2022/03/08 08:46:15;;;;;;;7.55;4.63;;;;;;;;;;4963136;28;20222;-74
2022/03/08 08:48:42;;;;;;;6.50;5.88;;;;;;;;;;4970306;28;20600;-73
2022/03/08 08:51:09;;;;;;;6.38;4.88;;;;;;;;;;4968693;28;20245;-74
2022/03/08 08:53:36;;;;;;;4.43;4.03;;;;;;;;;;4974175;28;20272;-74
2022/03/08 08:56:04;;;;;;;5.47;4.95;;;;;;;;;;4973003;28;20197;-75
2022/03/08 08:58:32;;;;;;;5.13;4.53;;;;;;;;;;4969888;28;20194;-71
2022/03/08 09:01:00;;;;;;;6.30;4.57;;;;;;;;;;4968925;28;20194;-72
2022/03/08 09:03:27;;;;;;;4.30;3.90;;;;;;;;;;4971809;28;20197;-72
2022/03/08 09:05:54;;;;;;;5.70;5.05;;;;;;;;;;4965623;28;20217;-72
2022/03/08 09:08:24;;;;;;;5.60;4.68;;;;;;;;;;4970301;28;20264;-72
2022/03/08 09:10:51;;;;;;;6.03;5.43;;;;;;;;;;4973946;28;20657;-72
2022/03/08 09:13:18;;;;;;;6.05;4.35;;;;;;;;;;4972949;28;20288;-73
2022/03/08 09:15:46;;;;;;;5.65;4.55;;;;;;;;;;4966566;28;20777;-73
2022/03/08 09:18:13;;;;;;;6.10;4.60;;;;;;;;;;4966363;28;20193;-73
2022/03/08 09:20:41;;;;;;;4.88;4.47;;;;;;;;;;4970845;28;20198;-73
2022/03/08 09:23:08;;;;;;;5.90;5.28;;;;;;;;;;4972383;28;20221;-72
2022/03/08 09:25:36;;;;;;;7.18;4.10;;;;;;;;;;4970531;28;20604;-72
2022/03/08 09:28:05;;;;;;;6.28;5.20;;;;;;;;;;4972759;28;20200;-73
2022/03/08 09:30:32;;;;;;;6.07;4.30;;;;;;;;;;4966720;28;20197;-72
2022/03/08 09:33:03;;;;;;;5.00;4.50;;;;;;;;;;4969531;28;20202;-72
2022/03/08 09:35:30;;;;;;;6.00;4.65;;;;;;;;;;4973782;28;20209;-73
2022/03/08 09:37:57;;;;;;;4.72;4.20;;;;;;;;;;4971478;28;20614;-73
2022/03/08 09:40:25;;;;;;;5.30;3.75;;;;;;;;;;4973906;28;20206;-73
2022/03/08 09:42:52;;;;;;;10.20;5.47;;;;;;;;;;4970626;28;20210;-73
2022/03/08 09:45:20;;;;;;;5.90;3.53;;;;;;;;;;4964631;28;20227;-73
2022/03/08 09:47:47;;;;;;;4.43;3.75;;;;;;;;;;4967370;28;20684;-80
2022/03/08 09:50:16;;;;;;;5.22;4.65;;;;;;;;;;4973786;28;20673;-78
2022/03/08 09:52:43;;;;;;;4.70;4.18;;;;;;;;;;4972599;28;20249;-73
2022/03/08 09:55:11;;;;;;;5.32;4.38;;;;;;;;;;4967315;28;20194;-73
2022/03/08 09:57:39;;;;;;;5.85;4.75;;;;;;;;;;4970083;28;20648;-83
2022/03/08 10:00:07;;;;;;;6.47;3.90;;;;;;;;;;4972813;28;20213;-72
2022/03/08 10:02:47;;;;;;;4.80;4.40;;;;;;;;;;4972349;28;20220;-73
2022/03/08 10:05:16;;;;;;;4.55;4.07;;;;;;;;;;4965885;28;20198;-72
2022/03/08 10:07:58;;;;;;;4.40;4.00;;;;;;;;;;4968285;28;20198;-72
2022/03/08 10:10:25;;;;;;;5.75;4.07;;;;;;;;;;4982168;28;20197;-71
2022/03/08 10:12:57;;;;;;;13.70;4.75;;;;;;;;;;4985507;28;20205;-72
2022/03/08 10:15:24;;;;;;;7.88;3.88;;;;;;;;;;4971585;28;20570;-71
2022/03/08 10:17:51;;;;;;;4.68;3.92;;;;;;;;;;4972950;28;20544;-72
2022/03/08 10:20:29;;;;;;;3.97;3.60;;;;;;;;;;4973334;28;20201;-71
2022/03/08 10:22:56;;;;;;;4.35;3.95;;;;;;;;;;4970499;28;20209;-72
2022/03/08 10:25:25;;;;;;;5.60;4.28;;;;;;;;;;4970992;28;20233;-72
2022/03/08 10:28:02;;;;;;;6.20;4.10;;;;;;;;;;4970520;28;20615;-71
2022/03/08 10:30:30;;;;;;;8.02;4.10;;;;;;;;;;4972044;28;20205;-71
2022/03/08 10:32:59;;;;;;;4.72;4.32;;;;;;;;;;4973584;28;20538;-72
2022/03/08 10:35:28;;;;;;;3.97;3.67;;;;;;;;;;4965084;28;20197;-71
2022/03/08 10:37:58;;;;;;;7.05;4.75;;;;;;;;;;4969356;28;20197;-72
2022/03/08 10:40:29;;;;;;;6.30;4.35;;;;;;;;;;4973318;28;20202;-71
2022/03/08 10:43:00;;;;;;;7.68;4.03;;;;;;;;;;4972181;28;20217;-71
2022/03/08 10:45:28;;;;;;;5.93;4.15;;;;;;;;;;4971079;28;20305;-72
2022/03/08 10:47:55;;;;;;;4.28;3.88;;;;;;;;;;4971193;28;20194;-71
2022/03/08 10:50:23;;;;;;;4.03;3.50;;;;;;;;;;4972309;28;20197;-71
2022/03/08 10:52:52;;;;;;;4.97;4.53;;;;;;;;;;4972574;28;20289;-71
2022/03/08 10:55:20;;;;;;;5.28;3.80;;;;;;;;;;4966492;28;20198;-72
2022/03/08 10:57:50;;;;;;;5.90;4.40;;;;;;;;;;4970014;28;20193;-71
2022/03/08 11:00:20;;;;;;;4.95;4.35;;;;;;;;;;4968932;28;20237;-72
2022/03/08 11:02:49;;;;;;;5.40;4.70;;;;;;;;;;4970482;28;20597;-71
2022/03/08 11:05:17;;;;;;;4.85;4.35;;;;;;;;;;4971880;28;20193;-71
2022/03/08 11:07:44;;;;;;;5.05;4.05;;;;;;;;;;4975361;28;20224;-72
2022/03/08 11:10:13;;;;;;;6.68;5.13;;;;;;;;;;4970558;28;20209;-72
2022/03/08 11:12:41;;;;;;;5.97;4.68;;;;;;;;;;4972573;28;20201;-71
2022/03/08 11:15:09;;;;;;;3.67;3.35;;;;;;;;;;4967317;28;20197;-71
2022/03/08 11:17:37;;;;;;;4.65;4.15;;;;;;;;;;4968446;28;20228;-72
2022/03/08 11:20:05;;;;;;;4.57;4.18;;;;;;;;;;4969706;28;20202;-71
2022/03/08 11:22:32;;;;;;;4.43;3.95;;;;;;;;;;4972942;28;20201;-72
2022/03/08 11:25:00;;;;;;;5.72;3.95;;;;;;;;;;4973080;28;20217;-71
2022/03/08 11:27:28;;;;;;;5.57;4.40;;;;;;;;;;4971085;28;20280;-71
2022/03/08 11:29:55;;;;;;;7.13;5.13;;;;;;;;;;4970958;28;20201;-71
2022/03/08 11:32:26;;;;;;;6.05;4.32;;;;;;;;;;4964622;28;20198;-72
2022/03/08 11:34:56;;;;;;;4.05;3.60;;;;;;;;;;4971812;28;20201;-71
2022/03/08 11:37:24;;;;;;;5.35;4.18;;;;;;;;;;4963016;28;20296;-73
2022/03/08 11:40:06;;;;;;;4.28;3.38;;;;;;;;;;4966300;28;20275;-73
2022/03/08 11:42:37;;;;;;;4.30;3.50;;;;;;;;;;4966692;28;20257;-73
2022/03/08 11:45:06;;;;;;;3.70;3.13;;;;;;;;;;4961302;28;20197;-73
2022/03/08 11:47:37;;;;;;;4.55;3.65;;;;;;;;;;4967396;28;20225;-73
2022/03/08 11:50:04;;;;;;;4.60;3.75;;;;;;;;;;4967444;28;20716;-74
2022/03/08 11:52:33;;;;;;;5.72;4.00;;;;;;;;;;4972439;28;20201;-74
2022/03/08 11:55:03;;;;;;;4.68;3.97;;;;;;;;;;4972269;28;20202;-74
2022/03/08 11:57:49;;;;;;;3.92;3.55;;;;;;;;;;4966370;28;20241;-74
2022/03/08 12:00:18;;;;;;;3.85;3.55;;;;;;;;;;4953062;28;20193;-75
2022/03/08 12:02:45;;;;;;;4.10;3.40;;;;;;;;;;4967563;28;20190;-73
2022/03/08 12:05:27;;;;;;;4.07;3.25;;;;;;;;;;4962684;28;20205;-74
2022/03/08 12:07:55;;;;;;;4.03;3.65;;;;;;;;;;4967523;28;20221;-75
2022/03/08 12:10:26;;;;;;;3.50;3.20;;;;;;;;;;4961194;28;20197;-73
2022/03/08 12:12:54;;;;;;;3.60;3.00;;;;;;;;;;4966522;28;20290;-73
2022/03/08 12:15:23;;;;;;;3.72;3.15;;;;;;;;;;4966599;28;20209;-71
2022/03/08 12:18:08;;;;;;;4.53;3.17;;;;;;;;;;4961919;28;20249;-74
2022/03/08 12:20:35;;;;;;;3.40;3.10;;;;;;;;;;4966378;28;20216;-72
2022/03/08 12:23:09;;;;;;;3.85;2.95;;;;;;;;;;4965098;28;20208;-72
2022/03/08 12:25:36;;;;;;;5.47;2.65;;;;;;;;;;4962134;28;20280;-71
2022/03/08 12:28:03;;;;;;;3.47;3.17;;;;;;;;;;4968197;28;20226;-72
2022/03/08 12:30:42;;;;;;;5.05;2.95;;;;;;;;;;4972236;28;20204;-72
2022/03/08 12:33:10;;;;;;;3.65;3.25;;;;;;;;;;4969057;28;20197;-73
2022/03/08 12:35:37;;;;;;;4.07;3.47;;;;;;;;;;4970255;28;20688;-72
2022/03/08 12:38:04;;;;;;;6.03;4.10;;;;;;;;;;4970021;28;20224;-73
2022/03/08 12:40:35;;;;;;;3.72;2.83;;;;;;;;;;4968835;28;20210;-74
2022/03/08 12:43:03;;;;;;;2.70;2.50;;;;;;;;;;4972303;28;20204;-73
2022/03/08 12:45:31;;;;;;;3.35;3.05;;;;;;;;;;4964975;28;20214;-73
2022/03/08 12:48:01;;;;;;;3.00;2.53;;;;;;;;;;4965912;28;20257;-73
2022/03/08 12:50:29;;;;;;;3.22;2.92;;;;;;;;;;4968177;28;20209;-73
2022/03/08 12:52:57;;;;;;;3.25;2.22;;;;;;;;;;4969707;28;20614;-73
2022/03/08 12:55:27;;;;;;;2.95;2.55;;;;;;;;;;4967162;28;20201;-73
2022/03/08 12:57:55;;;;;;;2.65;2.40;;;;;;;;;;4968324;28;20202;-75
2022/03/08 13:00:26;;;;;;;3.17;2.40;;;;;;;;;;4971300;28;20695;-73
2022/03/08 13:02:53;;;;;;;2.80;2.60;;;;;;;;;;4970507;28;20209;-73
2022/03/08 13:05:26;;;;;;;3.10;2.80;;;;;;;;;;4967929;28;20202;-72
2022/03/08 13:07:54;;;;;;;2.65;2.38;;;;;;;;;;4968753;28;20217;-74
2022/03/08 13:10:21;;;;;;;2.90;2.60;;;;;;;;;;4965870;28;20198;-73
2022/03/08 13:12:52;;;;;;;3.00;2.80;;;;;;;;;;4965171;28;20202;-74
2022/03/08 13:15:22;;;;;;;3.88;2.30;;;;;;;;;;4962958;28;20292;-76
2022/03/08 13:17:49;;;;;;;3.67;2.25;;;;;;;;;;4965395;28;20233;-74
2022/03/08 13:20:28;;;;;;;2.33;2.13;;;;;;;;;;4968093;28;20696;-73
2022/03/08 13:22:56;;;;;;;3.55;2.10;;;;;;;;;;4969392;28;20193;-74
2022/03/08 13:25:23;;;;;;;3.55;2.40;;;;;;;;;;4969032;28;20218;-73
2022/03/08 13:28:01;;;;;;;3.97;2.45;;;;;;;;;;4968981;28;20577;-73
2022/03/08 13:30:29;;;;;;;2.40;1.90;;;;;;;;;;4968203;28;20201;-73
2022/03/08 13:33:13;;;;;;;2.85;2.25;;;;;;;;;;4957587;28;20201;-73
2022/03/08 13:35:42;;;;;;;3.92;3.20;;;;;;;;;;4968643;28;20201;-74
2022/03/08 13:38:10;;;;;;;3.35;2.42;;;;;;;;;;4966603;28;20205;-74
2022/03/08 13:40:37;;;;;;;3.35;2.47;;;;;;;;;;4967509;28;20279;-74
2022/03/08 13:43:04;;;;;;;2.60;2.28;;;;;;;;;;4970353;28;20197;-73
2022/03/08 13:45:31;;;;;;;3.08;1.92;;;;;;;;;;4970062;28;21011;-74
2022/03/08 13:47:59;;;;;;;2.40;2.05;;;;;;;;;;4964515;28;20240;-73
2022/03/08 13:50:27;;;;;;;2.90;2.20;;;;;;;;;;4969179;28;20256;-75
2022/03/08 13:52:56;;;;;;;2.60;2.08;;;;;;;;;;4969373;28;20557;-73
2022/03/08 13:55:27;;;;;;;3.30;1.67;;;;;;;;;;4969513;28;20676;-74
2022/03/08 13:57:55;;;;;;;2.83;2.50;;;;;;;;;;4965559;28;20201;-74
2022/03/08 14:00:22;;;;;;;3.90;2.50;;;;;;;;;;4965983;28;20229;-74
2022/03/08 14:02:54;;;;;;;5.13;2.40;;;;;;;;;;4971221;28;20561;-73
2022/03/08 14:05:21;;;;;;;2.58;2.38;;;;;;;;;;4968857;28;20852;-74
2022/03/08 14:07:56;;;;;;;2.85;2.30;;;;;;;;;;4969042;28;20292;-76
2022/03/08 14:10:24;;;;;;;2.88;2.25;;;;;;;;;;4968446;28;20369;-70
2022/03/08 14:12:51;;;;;;;2.45;2.25;;;;;;;;;;4972614;28;20190;-72
2022/03/08 14:15:18;;;;;;;2.80;2.20;;;;;;;;;;4971565;28;20197;-72
2022/03/08 14:17:46;;;;;;;2.67;2.13;;;;;;;;;;4966205;28;20201;-72
2022/03/08 14:20:14;;;;;;;2.38;2.17;;;;;;;;;;4972557;28;20233;-73
2022/03/08 14:22:56;;;;;;;4.70;2.10;;;;;;;;;;4973318;28;20384;-73
2022/03/08 14:25:25;;;;;;;3.60;1.80;;;;;;;;;;4970905;28;20233;-73
2022/03/08 14:27:52;;;;;;;2.45;1.85;;;;;;;;;;4972834;28;20700;-73
2022/03/08 14:30:22;;;;;;;2.80;1.85;;;;;;;;;;4981194;28;20220;-73
2022/03/08 14:32:49;;;;;;;3.45;1.70;;;;;;;;;;4966674;28;20657;-73
2022/03/08 14:35:17;;;;;;;2.55;2.13;;;;;;;;;;4962674;28;20228;-74
2022/03/08 14:37:45;;;;;;;2.45;2.20;;;;;;;;;;4965576;28;20205;-72
2022/03/08 14:40:13;;;;;;;3.28;2.30;;;;;;;;;;4968783;28;20300;-73
2022/03/08 14:42:42;;;;;;;2.55;2.30;;;;;;;;;;4970463;28;20206;-73
2022/03/08 14:45:12;;;;;;;5.00;1.60;;;;;;;;;;4973144;28;20248;-73
2022/03/08 14:47:39;;;;;;;3.45;2.72;;;;;;;;;;4967977;28;20226;-72